Flight Track Log - Related Links

Times and Time Zones

All times are in EDT time to prevent confusion due to time zone crossing. See the N6045S flight status page for this flight to view local times or setup timezone preferences in your user account.

Time Position Orientation Groundspeed Altitude Reporting Facility
EDT Latitude Longitude Course Direction KTS MPH feet Rate Location/Type
Fri 01:35:43 PM 43.0964 -70.6117 231° Southwest 240 276 12,500  Level Boston Center
Fri 01:36:43 PM 43.0497 -70.6842 229° Southwest 234 269 13,300 650 Climbing Boston Center
Fri 01:37:43 PM 43.0172 -70.7392 231° Southwest 229 264 13,800 450 Climbing Boston Center
Fri 01:38:43 PM 42.9744 -70.8083 230° Southwest 223 257 14,200 350 Climbing Boston Center
Fri 01:39:43 PM 42.9378 -70.8661 229° Southwest 223 257 14,500 150 Climbing Boston Center
Fri 01:40:43 PM 42.8908 -70.9408 229° Southwest 231 266 14,500  Level Boston Center
Fri 01:41:00 PM 43.7133 -69.6119 231° Southwest  Level Estimated
Fri 01:41:43 PM 42.8519 -71.0042 230° Southwest 237 273 14,500  Level Boston Center
Fri 01:42:54 PM 42.8028 -71.0761 227° Southwest 237 273 14,500  Level Boston Center
Fri 01:43:55 PM 42.7497 -71.1622 230° Southwest 242 278 14,500  Level Boston Center
Fri 01:44:55 PM 42.7086 -71.2308 231° Southwest 242 278 14,500  Level Boston Center
Fri 01:45:55 PM 42.6636 -71.2994 228° Southwest 242 278 14,500  Level Boston Center
Fri 01:46:55 PM 42.6206 -71.3681 230° Southwest 242 278 14,500  Level Boston Center
Fri 01:47:55 PM 42.5772 -71.4364 229° Southwest 242 278 14,500  Level Boston Center
Fri 01:48:55 PM 42.5342 -71.5047 229° Southwest 242 278 14,500  Level Boston Center
Fri 01:49:55 PM 42.4889 -71.5728 228° Southwest 237 273 14,500  Level Boston Center
Fri 01:50:55 PM 42.4456 -71.6411 229° Southwest 237 273 14,500  Level Boston Center
Fri 01:51:55 PM 42.4000 -71.7092 228° Southwest 242 278 14,500  Level Boston Center
Fri 01:52:55 PM 42.3567 -71.7769 229° Southwest 242 278 14,500  Level Boston Center
Fri 01:53:55 PM 42.3114 -71.8450 228° Southwest 237 273 14,500  Level Boston Center
Fri 01:54:55 PM 42.2658 -71.9156 229° Southwest 244 281 14,500  Level Boston Center
Fri 01:55:55 PM 42.2264 -71.9775 229° Southwest 249 287 14,500  Level Boston Center
Fri 01:56:55 PM 42.1789 -72.0506 229° Southwest 244 281 14,500  Level Boston Center
Fri 01:58:06 PM 42.1394 -72.1125 229° Southwest 244 281 14,500  Level Boston Center
Fri 01:59:07 PM 42.0833 -72.1967 228° Southwest 239 275 14,500  Level Boston Center
Fri 02:00:07 PM 42.0500 -72.2725 239° Southwest 239 275 14,500  Level Boston Center
Fri 02:01:07 PM 42.0211 -72.3450 242° Southwest 234 269 14,500  Level Boston Center
Fri 02:02:07 PM 41.9897 -72.4233 242° Southwest 228 262 14,500  Level Boston Center
Fri 02:03:07 PM 41.9606 -72.4958 242° Southwest 228 262 14,500  Level Boston Center
Fri 02:04:07 PM 41.9253 -72.5656 236° Southwest 228 262 14,500  Level Boston Center
Fri 02:05:07 PM 41.8897 -72.6408 238° Southwest 234 269 14,500  Level Boston Center
Fri 02:06:07 PM 41.8417 -72.7019 223° Southwest 241 277 14,500  Level Boston Center
Fri 02:07:06 PM 41.8039 -72.7519 225° Southwest 241 277 14,500  Level Boston Center
Fri 02:08:07 PM 41.7536 -72.8214 226° Southwest 241 277 14,500 -198 Level Boston Center
Fri 02:09:07 PM 41.7014 -72.8878 224° Southwest 247 284 14,100 -755 Descending Boston Center
Fri 02:10:38 PM 41.6167 -72.9833 220° Southwest 265 305 12,600 -960 Descending New York TRACON
Fri 02:11:37 PM 41.5667 -73.0500 225° Southwest 254 292 11,700 -1,059 Descending New York TRACON
Fri 02:12:37 PM 41.5167 -73.1167 225° Southwest 258 297 10,500 -1,148 Descending New York TRACON
Fri 02:13:32 PM 41.4667 -73.1833 225° Southwest 254 292 9,500 -1,150 Descending New York TRACON
Fri 02:14:37 PM 41.4167 -73.2667 231° Southwest 247 284 8,200 -1,143 Descending New York TRACON
Fri 02:15:38 PM 41.3833 -73.3333 236° Southwest 246 283 7,100 -1,091 Descending New York TRACON
Fri 02:16:38 PM 41.3333 -73.4000 225° Southwest 246 283 6,000 -756 Descending New York TRACON
Fri 02:17:37 PM 41.2833 -73.4667 225° Southwest 225 259 5,600 -454 Descending New York TRACON
Fri 02:18:37 PM 41.2500 -73.5167 228° Southwest 221 254 5,100 -730 Descending New York TRACON
Fri 02:19:32 PM 41.2000 -73.5667 217° Southwest 218 251 4,200 -887 Descending New York TRACON
Fri 02:20:32 PM 41.1667 -73.6167 228° Southwest 211 243 3,400 -750 Descending New York TRACON
Fri 02:21:32 PM 41.1500 -73.6833 252° West 200 230 2,700 -600 Descending New York TRACON
Fri 02:22:32 PM 41.1333 -73.7500 252° West 145 167 2,200 -750 Descending New York TRACON
Fri 02:23:32 PM 41.1000 -73.7333 159° South 118 136 1,200 -1,000 Descending New York TRACON
Fri 02:25:00 PM 41.0667 -73.7000 236° Southwest  Level FlightAware Approximate
Fri 02:32:00 PM 41.0669 -73.7076 236° Southwest  Level Estimated
Fri 02:33:00 PM 41.0667 -73.7000 236° Southwest  Level FlightAware Approximate
Fri 02:34:00 PM 41.0669 -73.7076 236° Southwest  Level Estimated

Login

Don't have an account? Register now (free) for customized features, flight alerts, and more!